Airport View

Enter AWOS ICAO identifier for current METAR.

ex. KFNL

KAPY 011200Z AUTO 00000KT 10SM CLR 12/09 A3011 RMK AO2 T01160092 TSNO

1 Oct 2020 13:39

Frequency: 118.225

Phone: 956-765-4069

Other Area AWOS: MMNL - KHBV - KLRD - KBKS

TAF MMNL 010534Z 0106/0206 00000KT P6SM SKC FM011800 13010KT P6SM SKC FM020300 13005KT P6SM SKC